sensor_id;sensor_type;location;lat;lon;timestamp;pressure;altitude;pressure_sealevel;temperature;humidity
61205;BME280;47068;55.780;37.520;2023-06-14T00:01:32;100259.75;;;15.75;46.61
61205;BME280;47068;55.780;37.520;2023-06-14T00:04:00;100233.44;;;15.56;46.67
61205;BME280;47068;55.780;37.520;2023-06-14T00:06:28;100236.59;;;15.59;47.05
61205;BME280;47068;55.780;37.520;2023-06-14T00:08:53;100252.03;;;15.72;46.73
61205;BME280;47068;55.780;37.520;2023-06-14T00:11:20;100249.25;;;15.65;47.12
61205;BME280;47068;55.780;37.520;2023-06-14T00:13:46;100253.50;;;15.60;47.09
61205;BME280;47068;55.780;37.520;2023-06-14T00:16:11;100254.06;;;15.55;47.27
61205;BME280;47068;55.780;37.520;2023-06-14T00:18:37;100264.28;;;15.52;47.55
61205;BME280;47068;55.780;37.520;2023-06-14T00:21:03;100246.13;;;15.39;47.73
61205;BME280;47068;55.780;37.520;2023-06-14T00:23:29;100246.69;;;15.34;46.55
61205;BME280;47068;55.780;37.520;2023-06-14T00:25:55;100247.97;;;15.38;47.38
61205;BME280;47068;55.780;37.520;2023-06-14T00:28:20;100258.47;;;15.48;47.99
61205;BME280;47068;55.780;37.520;2023-06-14T00:30:46;100256.88;;;15.39;48.30
61205;BME280;47068;55.780;37.520;2023-06-14T00:33:12;100257.41;;;15.34;48.50
61205;BME280;47068;55.780;37.520;2023-06-14T00:35:38;100260.09;;;15.34;46.76
61205;BME280;47068;55.780;37.520;2023-06-14T00:38:03;100255.03;;;15.40;47.57
61205;BME280;47068;55.780;37.520;2023-06-14T00:40:29;100266.09;;;15.36;48.06
61205;BME280;47068;55.780;37.520;2023-06-14T00:42:54;100242.28;;;15.19;47.85
61205;BME280;47068;55.780;37.520;2023-06-14T00:45:20;100249.78;;;15.23;48.74
61205;BME280;47068;55.780;37.520;2023-06-14T00:47:46;100260.50;;;15.23;48.92
61205;BME280;47068;55.780;37.520;2023-06-14T00:50:11;100244.56;;;15.07;48.83
61205;BME280;47068;55.780;37.520;2023-06-14T00:52:38;100242.59;;;15.01;49.24
61205;BME280;47068;55.780;37.520;2023-06-14T00:55:05;100234.97;;;14.90;49.28
61205;BME280;47068;55.780;37.520;2023-06-14T00:57:31;100259.31;;;15.03;49.53
61205;BME280;47068;55.780;37.520;2023-06-14T00:59:57;100252.19;;;14.95;49.54
61205;BME280;47068;55.780;37.520;2023-06-14T01:02:22;100254.41;;;14.92;49.46
61205;BME280;47068;55.780;37.520;2023-06-14T01:04:50;100259.75;;;14.92;49.93
61205;BME280;47068;55.780;37.520;2023-06-14T01:15:20;100256.47;;;14.82;50.33
61205;BME280;47068;55.780;37.520;2023-06-14T01:17:49;100249.81;;;14.78;50.42
61205;BME280;47068;55.780;37.520;2023-06-14T01:20:17;100265.34;;;14.82;50.96
61205;BME280;47068;55.780;37.520;2023-06-14T01:22:54;100257.66;;;14.79;50.92
61205;BME280;47068;55.780;37.520;2023-06-14T01:25:21;100263.19;;;14.78;50.93
61205;BME280;47068;55.780;37.520;2023-06-14T01:27:53;100260.03;;;14.74;51.44
61205;BME280;47068;55.780;37.520;2023-06-14T01:30:21;100255.22;;;14.70;51.33
61205;BME280;47068;55.780;37.520;2023-06-14T01:32:49;100249.06;;;14.61;51.16
61205;BME280;47068;55.780;37.520;2023-06-14T01:35:16;100264.91;;;14.71;51.47
61205;BME280;47068;55.780;37.520;2023-06-14T01:37:42;100247.03;;;14.63;51.48
61205;BME280;47068;55.780;37.520;2023-06-14T01:40:18;100253.38;;;14.70;51.04
61205;BME280;47068;55.780;37.520;2023-06-14T01:42:52;100243.25;;;14.57;51.10
61205;BME280;47068;55.780;37.520;2023-06-14T01:45:18;100275.25;;;14.74;51.35
61205;BME280;47068;55.780;37.520;2023-06-14T01:47:45;100277.44;;;14.78;51.37
61205;BME280;47068;55.780;37.520;2023-06-14T01:50:11;100272.56;;;14.74;52.04
61205;BME280;47068;55.780;37.520;2023-06-14T01:52:37;100256.38;;;14.67;52.03
61205;BME280;47068;55.780;37.520;2023-06-14T01:55:04;100280.28;;;14.77;52.38
61205;BME280;47068;55.780;37.520;2023-06-14T01:57:30;100271.56;;;14.75;52.55
61205;BME280;47068;55.780;37.520;2023-06-14T01:59:56;100276.63;;;14.70;52.69
61205;BME280;47068;55.780;37.520;2023-06-14T02:02:21;100273.63;;;14.73;52.82
61205;BME280;47068;55.780;37.520;2023-06-14T02:04:47;100267.88;;;14.76;53.07
61205;BME280;47068;55.780;37.520;2023-06-14T02:07:13;100270.88;;;14.81;52.74
61205;BME280;47068;55.780;37.520;2023-06-14T02:09:38;100273.91;;;14.78;52.55
61205;BME280;47068;55.780;37.520;2023-06-14T02:12:04;100274.09;;;14.76;52.60
61205;BME280;47068;55.780;37.520;2023-06-14T02:14:30;100272.25;;;14.77;52.47
61205;BME280;47068;55.780;37.520;2023-06-14T02:16:55;100276.94;;;14.75;52.94
61205;BME280;47068;55.780;37.520;2023-06-14T02:19:21;100262.41;;;14.69;53.18
61205;BME280;47068;55.780;37.520;2023-06-14T02:21:47;100263.91;;;14.72;53.88
61205;BME280;47068;55.780;37.520;2023-06-14T02:24:13;100266.59;;;14.72;54.21
61205;BME280;47068;55.780;37.520;2023-06-14T02:26:38;100269.91;;;14.74;53.91
61205;BME280;47068;55.780;37.520;2023-06-14T02:29:07;100264.91;;;14.71;53.58
61205;BME280;47068;55.780;37.520;2023-06-14T02:31:36;100263.06;;;14.71;54.15
61205;BME280;47068;55.780;37.520;2023-06-14T02:34:02;100242.41;;;14.57;54.24
61205;BME280;47068;55.780;37.520;2023-06-14T02:36:28;100267.88;;;14.76;54.16
61205;BME280;47068;55.780;37.520;2023-06-14T02:38:56;100269.19;;;14.80;54.80
61205;BME280;47068;55.780;37.520;2023-06-14T02:41:26;100266.84;;;14.85;54.69
61205;BME280;47068;55.780;37.520;2023-06-14T02:43:52;100272.50;;;14.90;54.15
61205;BME280;47068;55.780;37.520;2023-06-14T02:46:18;100269.59;;;15.00;53.36
61205;BME280;47068;55.780;37.520;2023-06-14T02:48:44;100270.03;;;15.03;53.43
61205;BME280;47068;55.780;37.520;2023-06-14T02:51:09;100278.50;;;15.15;54.33
61205;BME280;47068;55.780;37.520;2023-06-14T02:53:35;100284.13;;;15.28;52.44
61205;BME280;47068;55.780;37.520;2023-06-14T02:56:04;100283.84;;;15.37;52.97
61205;BME280;47068;55.780;37.520;2023-06-14T02:58:30;100288.50;;;15.44;53.34
61205;BME280;47068;55.780;37.520;2023-06-14T03:00:56;100295.19;;;15.48;53.67
61205;BME280;47068;55.780;37.520;2023-06-14T03:03:22;100282.41;;;15.50;54.38
61205;BME280;47068;55.780;37.520;2023-06-14T03:05:50;100291.63;;;15.55;53.76
61205;BME280;47068;55.780;37.520;2023-06-14T03:08:16;100266.75;;;15.38;54.62
61205;BME280;47068;55.780;37.520;2023-06-14T03:10:45;100286.53;;;15.60;54.26
61205;BME280;47068;55.780;37.520;2023-06-14T03:13:10;100296.38;;;15.68;54.17
61205;BME280;47068;55.780;37.520;2023-06-14T03:15:36;100270.91;;;15.64;53.80
61205;BME280;47068;55.780;37.520;2023-06-14T03:18:02;100291.47;;;15.86;53.47
61205;BME280;47068;55.780;37.520;2023-06-14T03:20:29;100293.41;;;15.92;50.45
61205;BME280;47068;55.780;37.520;2023-06-14T03:22:55;100295.47;;;16.05;50.65
61205;BME280;47068;55.780;37.520;2023-06-14T03:25:20;100283.81;;;16.12;51.42
61205;BME280;47068;55.780;37.520;2023-06-14T03:27:47;100292.25;;;16.24;48.61
61205;BME280;47068;55.780;37.520;2023-06-14T03:30:13;100277.78;;;16.25;49.84
61205;BME280;47068;55.780;37.520;2023-06-14T03:32:38;100282.50;;;16.38;50.41
61205;BME280;47068;55.780;37.520;2023-06-14T03:35:04;100283.94;;;16.55;50.61
61205;BME280;47068;55.780;37.520;2023-06-14T03:37:30;100283.22;;;16.61;50.54
61205;BME280;47068;55.780;37.520;2023-06-14T03:39:55;100288.31;;;16.71;50.46
61205;BME280;47068;55.780;37.520;2023-06-14T03:42:21;100281.34;;;16.76;49.62
61205;BME280;47068;55.780;37.520;2023-06-14T03:44:46;100276.50;;;16.86;50.09
61205;BME280;47068;55.780;37.520;2023-06-14T03:47:12;100276.19;;;16.96;47.68
61205;BME280;47068;55.780;37.520;2023-06-14T03:49:37;100267.50;;;16.94;46.52
61205;BME280;47068;55.780;37.520;2023-06-14T03:52:03;100251.44;;;17.01;46.33
61205;BME280;47068;55.780;37.520;2023-06-14T03:54:29;100255.63;;;17.10;47.01
61205;BME280;47068;55.780;37.520;2023-06-14T03:56:54;100276.34;;;17.37;47.32
61205;BME280;47068;55.780;37.520;2023-06-14T03:59:22;100242.63;;;17.35;45.66
61205;BME280;47068;55.780;37.520;2023-06-14T04:01:48;100279.94;;;17.65;44.97
61205;BME280;47068;55.780;37.520;2023-06-14T04:04:14;100271.28;;;17.70;44.76
61205;BME280;47068;55.780;37.520;2023-06-14T04:06:41;100269.53;;;17.84;45.62
61205;BME280;47068;55.780;37.520;2023-06-14T04:09:08;100284.97;;;18.03;44.64
61205;BME280;47068;55.780;37.520;2023-06-14T04:11:34;100276.75;;;18.11;45.07
61205;BME280;47068;55.780;37.520;2023-06-14T04:13:59;100279.69;;;18.23;43.09
61205;BME280;47068;55.780;37.520;2023-06-14T04:16:25;100281.00;;;18.40;43.01
61205;BME280;47068;55.780;37.520;2023-06-14T04:18:51;100272.38;;;18.51;42.13
61205;BME280;47068;55.780;37.520;2023-06-14T04:21:18;100273.28;;;18.65;41.76
61205;BME280;47068;55.780;37.520;2023-06-14T04:23:43;100269.13;;;18.62;41.76
61205;BME280;47068;55.780;37.520;2023-06-14T04:26:09;100275.00;;;18.79;41.57
61205;BME280;47068;55.780;37.520;2023-06-14T04:28:35;100274.66;;;19.08;41.14
61205;BME280;47068;55.780;37.520;2023-06-14T04:31:06;100274.03;;;19.39;40.95
61205;BME280;47068;55.780;37.520;2023-06-14T04:33:35;100270.34;;;19.66;41.39
61205;BME280;47068;55.780;37.520;2023-06-14T04:36:09;100265.44;;;20.21;40.99
61205;BME280;47068;55.780;37.520;2023-06-14T04:38:37;100271.66;;;20.86;38.42
61205;BME280;47068;55.780;37.520;2023-06-14T04:41:02;100267.47;;;21.28;38.87
61205;BME280;47068;55.780;37.520;2023-06-14T04:43:28;100268.66;;;21.82;35.61
61205;BME280;47068;55.780;37.520;2023-06-14T04:45:53;100270.47;;;21.88;35.13
61205;BME280;47068;55.780;37.520;2023-06-14T04:48:21;100269.63;;;21.87;35.65
61205;BME280;47068;55.780;37.520;2023-06-14T04:50:47;100263.44;;;21.80;36.22
61205;BME280;47068;55.780;37.520;2023-06-14T04:53:13;100262.91;;;21.96;36.17
61205;BME280;47068;55.780;37.520;2023-06-14T04:55:38;100237.34;;;21.86;35.04
61205;BME280;47068;55.780;37.520;2023-06-14T04:58:05;100260.50;;;22.07;34.22
61205;BME280;47068;55.780;37.520;2023-06-14T05:00:30;100258.31;;;21.97;33.43
61205;BME280;47068;55.780;37.520;2023-06-14T05:02:56;100263.13;;;22.13;33.49
61205;BME280;47068;55.780;37.520;2023-06-14T05:05:22;100256.22;;;22.54;33.30
61205;BME280;47068;55.780;37.520;2023-06-14T05:07:49;100263.03;;;23.04;32.38
61205;BME280;47068;55.780;37.520;2023-06-14T05:10:14;100260.94;;;23.06;31.87
61205;BME280;47068;55.780;37.520;2023-06-14T05:12:40;100263.03;;;23.04;32.65
61205;BME280;47068;55.780;37.520;2023-06-14T05:15:09;100225.84;;;22.93;31.40
61205;BME280;47068;55.780;37.520;2023-06-14T05:17:35;100264.75;;;23.29;31.59
61205;BME280;47068;55.780;37.520;2023-06-14T05:20:01;100252.47;;;23.38;31.04
61205;BME280;47068;55.780;37.520;2023-06-14T05:22:27;100264.97;;;23.57;30.59
61205;BME280;47068;55.780;37.520;2023-06-14T05:24:52;100257.91;;;23.38;30.87
61205;BME280;47068;55.780;37.520;2023-06-14T05:27:23;100261.28;;;23.10;31.17
61205;BME280;47068;55.780;37.520;2023-06-14T05:29:50;100259.38;;;22.99;31.16
61205;BME280;47068;55.780;37.520;2023-06-14T05:32:15;100260.38;;;23.16;31.03
61205;BME280;47068;55.780;37.520;2023-06-14T05:34:41;100257.28;;;23.54;30.24
61205;BME280;47068;55.780;37.520;2023-06-14T05:37:07;100250.28;;;24.16;30.01
61205;BME280;47068;55.780;37.520;2023-06-14T05:39:33;100264.72;;;24.68;29.66
61205;BME280;47068;55.780;37.520;2023-06-14T05:41:58;100250.66;;;25.17;28.18
61205;BME280;47068;55.780;37.520;2023-06-14T05:44:24;100249.84;;;25.49;27.00
61205;BME280;47068;55.780;37.520;2023-06-14T05:46:49;100247.84;;;26.34;25.99
61205;BME280;47068;55.780;37.520;2023-06-14T05:49:15;100236.34;;;26.75;24.72
61205;BME280;47068;55.780;37.520;2023-06-14T05:51:40;100247.84;;;27.36;24.85
61205;BME280;47068;55.780;37.520;2023-06-14T05:54:06;100249.25;;;27.70;23.51
61205;BME280;47068;55.780;37.520;2023-06-14T05:56:31;100259.28;;;27.33;23.82
61205;BME280;47068;55.780;37.520;2023-06-14T05:58:57;100260.50;;;26.88;24.51
61205;BME280;47068;55.780;37.520;2023-06-14T06:01:22;100251.84;;;26.48;25.27
61205;BME280;47068;55.780;37.520;2023-06-14T06:03:48;100261.84;;;26.20;25.72
61205;BME280;47068;55.780;37.520;2023-06-14T06:06:14;100254.47;;;25.99;25.61
61205;BME280;47068;55.780;37.520;2023-06-14T06:08:40;100245.97;;;26.17;25.91
61205;BME280;47068;55.780;37.520;2023-06-14T06:11:06;100236.47;;;26.63;25.58
61205;BME280;47068;55.780;37.520;2023-06-14T06:13:31;100240.19;;;27.65;24.00
61205;BME280;47068;55.780;37.520;2023-06-14T06:15:57;100240.66;;;28.46;23.48
61205;BME280;47068;55.780;37.520;2023-06-14T06:18:23;100248.41;;;28.12;22.22
61205;BME280;47068;55.780;37.520;2023-06-14T06:20:50;100236.38;;;27.39;22.22
61205;BME280;47068;55.780;37.520;2023-06-14T06:23:16;100233.91;;;27.64;21.88
61205;BME280;47068;55.780;37.520;2023-06-14T06:25:42;100268.69;;;28.16;22.14
61205;BME280;47068;55.780;37.520;2023-06-14T06:28:08;100228.06;;;27.93;21.90
61205;BME280;47068;55.780;37.520;2023-06-14T06:30:33;100254.47;;;28.91;20.75
61205;BME280;47068;55.780;37.520;2023-06-14T06:32:59;100261.16;;;29.36;19.31
61205;BME280;47068;55.780;37.520;2023-06-14T06:35:25;100232.63;;;29.47;19.75
61205;BME280;47068;55.780;37.520;2023-06-14T06:37:53;100245.50;;;29.57;19.53
61205;BME280;47068;55.780;37.520;2023-06-14T06:40:18;100247.03;;;30.29;18.47
61205;BME280;47068;55.780;37.520;2023-06-14T06:42:44;100240.09;;;31.68;17.48
61205;BME280;47068;55.780;37.520;2023-06-14T06:45:10;100243.13;;;33.23;16.22
61205;BME280;47068;55.780;37.520;2023-06-14T06:47:35;100242.28;;;33.55;15.50
61205;BME280;47068;55.780;37.520;2023-06-14T06:50:01;100235.94;;;31.71;17.12
61205;BME280;47068;55.780;37.520;2023-06-14T06:52:26;100240.00;;;32.74;16.79
61205;BME280;47068;55.780;37.520;2023-06-14T06:54:52;100232.00;;;32.30;16.37
61205;BME280;47068;55.780;37.520;2023-06-14T06:57:20;100225.16;;;31.80;16.64
61205;BME280;47068;55.780;37.520;2023-06-14T06:59:48;100230.31;;;32.95;15.80
61205;BME280;47068;55.780;37.520;2023-06-14T07:02:13;100231.84;;;33.39;15.30
61205;BME280;47068;55.780;37.520;2023-06-14T07:04:39;100234.19;;;32.33;16.02
61205;BME280;47068;55.780;37.520;2023-06-14T07:07:04;100237.13;;;31.31;17.05
61205;BME280;47068;55.780;37.520;2023-06-14T07:09:30;100238.28;;;30.17;17.85
61205;BME280;47068;55.780;37.520;2023-06-14T07:11:55;100223.34;;;30.48;18.43
61205;BME280;47068;55.780;37.520;2023-06-14T07:14:20;100226.59;;;30.99;17.94
61205;BME280;47068;55.780;37.520;2023-06-14T07:16:48;100214.97;;;31.17;17.76
61205;BME280;47068;55.780;37.520;2023-06-14T07:19:14;100229.25;;;32.06;17.11
61205;BME280;47068;55.780;37.520;2023-06-14T07:21:40;100206.78;;;33.68;15.90
61205;BME280;47068;55.780;37.520;2023-06-14T07:24:06;100217.00;;;34.76;14.75
61205;BME280;47068;55.780;37.520;2023-06-14T07:26:32;100227.44;;;35.02;13.83
61205;BME280;47068;55.780;37.520;2023-06-14T07:28:57;100206.88;;;36.23;13.25
61205;BME280;47068;55.780;37.520;2023-06-14T07:31:23;100206.13;;;36.65;12.87
61205;BME280;47068;55.780;37.520;2023-06-14T07:33:48;100215.22;;;37.43;12.61
61205;BME280;47068;55.780;37.520;2023-06-14T07:36:14;100204.94;;;37.61;12.72
61205;BME280;47068;55.780;37.520;2023-06-14T07:38:39;100211.91;;;38.43;11.70
61205;BME280;47068;55.780;37.520;2023-06-14T07:41:06;100202.97;;;40.75;10.83
61205;BME280;47068;55.780;37.520;2023-06-14T07:43:31;100205.44;;;42.42;9.76
61205;BME280;47068;55.780;37.520;2023-06-14T07:45:57;100203.75;;;43.99;8.56
61205;BME280;47068;55.780;37.520;2023-06-14T07:48:23;100202.09;;;44.73;8.37
61205;BME280;47068;55.780;37.520;2023-06-14T07:50:48;100201.59;;;45.72;7.77
61205;BME280;47068;55.780;37.520;2023-06-14T07:53:14;100194.88;;;45.06;7.94
61205;BME280;47068;55.780;37.520;2023-06-14T07:55:40;100188.91;;;43.95;8.51
61205;BME280;47068;55.780;37.520;2023-06-14T07:58:08;100192.88;;;43.94;8.79
61205;BME280;47068;55.780;37.520;2023-06-14T08:00:34;100188.25;;;45.25;7.71
61205;BME280;47068;55.780;37.520;2023-06-14T08:03:00;100176.19;;;45.21;7.82
61205;BME280;47068;55.780;37.520;2023-06-14T08:05:26;100189.34;;;44.23;8.19
61205;BME280;47068;55.780;37.520;2023-06-14T08:07:52;100192.81;;;43.68;8.48
61205;BME280;47068;55.780;37.520;2023-06-14T08:10:18;100189.84;;;42.61;8.39
61205;BME280;47068;55.780;37.520;2023-06-14T08:12:43;100198.91;;;41.72;9.22
61205;BME280;47068;55.780;37.520;2023-06-14T08:15:09;100165.72;;;39.58;10.51
61205;BME280;47068;55.780;37.520;2023-06-14T08:17:35;100175.34;;;37.57;12.26
61205;BME280;47068;55.780;37.520;2023-06-14T08:20:02;100184.28;;;36.07;12.92
61205;BME280;47068;55.780;37.520;2023-06-14T08:22:29;100181.66;;;33.96;15.00
61205;BME280;47068;55.780;37.520;2023-06-14T08:25:01;100187.91;;;32.54;16.00
61205;BME280;47068;55.780;37.520;2023-06-14T08:27:27;100187.88;;;30.57;17.73
61205;BME280;47068;55.780;37.520;2023-06-14T08:29:53;100195.63;;;29.29;19.23
61205;BME280;47068;55.780;37.520;2023-06-14T08:32:18;100204.38;;;29.16;19.85
61205;BME280;47068;55.780;37.520;2023-06-14T08:34:44;100203.56;;;29.01;19.47
61205;BME280;47068;55.780;37.520;2023-06-14T08:37:09;100202.59;;;28.44;20.18
61205;BME280;47068;55.780;37.520;2023-06-14T08:39:35;100183.88;;;27.64;20.85
61205;BME280;47068;55.780;37.520;2023-06-14T08:42:02;100174.19;;;27.51;21.59
61205;BME280;47068;55.780;37.520;2023-06-14T08:44:29;100197.41;;;26.63;22.66
61205;BME280;47068;55.780;37.520;2023-06-14T08:47:02;100076.72;;;25.20;23.49
61205;BME280;47068;55.780;37.520;2023-06-14T08:49:32;100185.06;;;25.90;23.06
61205;BME280;47068;55.780;37.520;2023-06-14T08:51:59;100160.91;;;25.77;23.37
61205;BME280;47068;55.780;37.520;2023-06-14T08:54:30;100179.13;;;25.93;23.11
61205;BME280;47068;55.780;37.520;2023-06-14T08:56:59;100184.59;;;25.93;23.37
61205;BME280;47068;55.780;37.520;2023-06-14T08:59:28;100179.72;;;26.00;22.91
61205;BME280;47068;55.780;37.520;2023-06-14T09:01:59;100178.75;;;26.06;23.08
61205;BME280;47068;55.780;37.520;2023-06-14T09:04:28;100176.97;;;26.17;23.13
61205;BME280;47068;55.780;37.520;2023-06-14T09:06:55;100182.09;;;26.13;22.80
61205;BME280;47068;55.780;37.520;2023-06-14T09:09:22;100184.69;;;26.03;23.32
61205;BME280;47068;55.780;37.520;2023-06-14T09:11:51;100176.47;;;25.98;23.48
61205;BME280;47068;55.780;37.520;2023-06-14T09:14:18;100160.97;;;25.82;23.31
61205;BME280;47068;55.780;37.520;2023-06-14T09:16:44;100159.50;;;25.74;23.70
61205;BME280;47068;55.780;37.520;2023-06-14T09:19:20;100167.94;;;25.56;23.81
61205;BME280;47068;55.780;37.520;2023-06-14T09:21:47;100172.78;;;25.16;24.08
61205;BME280;47068;55.780;37.520;2023-06-14T09:24:14;100174.88;;;24.97;24.35
61205;BME280;47068;55.780;37.520;2023-06-14T09:26:39;100145.78;;;24.52;25.35
61205;BME280;47068;55.780;37.520;2023-06-14T09:29:06;100175.00;;;24.73;23.62
61205;BME280;47068;55.780;37.520;2023-06-14T09:31:31;100158.50;;;24.63;24.25
61205;BME280;47068;55.780;37.520;2023-06-14T09:33:58;100171.53;;;24.61;25.35
61205;BME280;47068;55.780;37.520;2023-06-14T09:36:26;100171.84;;;24.65;24.03
61205;BME280;47068;55.780;37.520;2023-06-14T09:38:56;100159.50;;;24.74;24.97
61205;BME280;47068;55.780;37.520;2023-06-14T09:41:51;100169.06;;;24.77;24.52
61205;BME280;47068;55.780;37.520;2023-06-14T09:44:16;100147.97;;;24.67;24.54
61205;BME280;47068;55.780;37.520;2023-06-14T09:46:43;100148.72;;;24.79;24.55
61205;BME280;47068;55.780;37.520;2023-06-14T09:49:09;100162.84;;;24.93;24.76
61205;BME280;47068;55.780;37.520;2023-06-14T09:51:36;100160.41;;;25.08;24.84
61205;BME280;47068;55.780;37.520;2023-06-14T09:54:08;100127.53;;;24.98;24.70
61205;BME280;47068;55.780;37.520;2023-06-14T09:56:41;100148.19;;;24.94;25.15
61205;BME280;47068;55.780;37.520;2023-06-14T09:59:09;100164.22;;;24.79;25.42
61205;BME280;47068;55.780;37.520;2023-06-14T10:01:41;100158.06;;;24.55;25.67
61205;BME280;47068;55.780;37.520;2023-06-14T10:04:09;100156.13;;;24.39;25.94
61205;BME280;47068;55.780;37.520;2023-06-14T10:06:43;100153.75;;;24.42;26.06
61205;BME280;47068;55.780;37.520;2023-06-14T10:09:11;100149.25;;;24.48;25.93
61205;BME280;47068;55.780;37.520;2023-06-14T10:11:38;100145.03;;;24.57;24.97
61205;BME280;47068;55.780;37.520;2023-06-14T10:14:10;100136.75;;;24.35;25.70
61205;BME280;47068;55.780;37.520;2023-06-14T10:17:03;100130.22;;;24.48;25.35
61205;BME280;47068;55.780;37.520;2023-06-14T10:20:02;100129.47;;;24.52;25.27
61205;BME280;47068;55.780;37.520;2023-06-14T10:22:35;100108.78;;;24.23;25.95
61205;BME280;47068;55.780;37.520;2023-06-14T10:25:07;100128.59;;;24.35;25.15
61205;BME280;47068;55.780;37.520;2023-06-14T10:27:37;100130.91;;;24.43;26.12
61205;BME280;47068;55.780;37.520;2023-06-14T10:30:05;100104.38;;;24.33;25.87
61205;BME280;47068;55.780;37.520;2023-06-14T10:32:33;100125.69;;;24.53;25.79
61205;BME280;47068;55.780;37.520;2023-06-14T10:35:08;100134.41;;;24.55;26.04
61205;BME280;47068;55.780;37.520;2023-06-14T10:37:34;100096.75;;;24.47;26.00
61205;BME280;47068;55.780;37.520;2023-06-14T10:40:00;100104.97;;;24.69;26.00
61205;BME280;47068;55.780;37.520;2023-06-14T10:42:32;100120.75;;;24.84;24.24
61205;BME280;47068;55.780;37.520;2023-06-14T10:44:58;100125.59;;;24.65;24.83
61205;BME280;47068;55.780;37.520;2023-06-14T10:50:07;100114.47;;;24.66;25.41
61205;BME280;47068;55.780;37.520;2023-06-14T10:52:41;100111.34;;;24.75;25.58
61205;BME280;47068;55.780;37.520;2023-06-14T10:57:46;100091.50;;;24.91;25.14
61205;BME280;47068;55.780;37.520;2023-06-14T11:00:16;100081.25;;;24.81;24.84
61205;BME280;47068;55.780;37.520;2023-06-14T11:03:31;100090.25;;;24.82;25.59
61205;BME280;47068;55.780;37.520;2023-06-14T11:06:13;100082.50;;;24.73;25.62
61205;BME280;47068;55.780;37.520;2023-06-14T11:09:21;100013.88;;;24.38;25.97
61205;BME280;47068;55.780;37.520;2023-06-14T11:11:56;100084.28;;;24.85;25.38
61205;BME280;47068;55.780;37.520;2023-06-14T11:14:22;100094.22;;;24.91;25.57
61205;BME280;47068;55.780;37.520;2023-06-14T11:16:49;100095.78;;;24.87;25.73
61205;BME280;47068;55.780;37.520;2023-06-14T11:19:15;100065.19;;;24.80;26.00
61205;BME280;47068;55.780;37.520;2023-06-14T11:21:42;100084.28;;;24.85;25.86
61205;BME280;47068;55.780;37.520;2023-06-14T11:24:11;100077.88;;;24.91;26.33
61205;BME280;47068;55.780;37.520;2023-06-14T11:26:37;100087.94;;;24.90;25.51
61205;BME280;47068;55.780;37.520;2023-06-14T11:29:03;100084.56;;;24.66;25.24
61205;BME280;47068;55.780;37.520;2023-06-14T11:31:29;100080.66;;;24.46;25.94
61205;BME280;47068;55.780;37.520;2023-06-14T11:33:59;100081.16;;;24.59;26.41
61205;BME280;47068;55.780;37.520;2023-06-14T11:36:29;100072.00;;;24.65;26.12
61205;BME280;47068;55.780;37.520;2023-06-14T11:39:02;100075.81;;;24.64;25.83
61205;BME280;47068;55.780;37.520;2023-06-14T11:41:43;100074.16;;;24.63;25.81
61205;BME280;47068;55.780;37.520;2023-06-14T11:44:09;100075.88;;;24.69;25.88
61205;BME280;47068;55.780;37.520;2023-06-14T11:46:35;100076.56;;;24.60;25.70
61205;BME280;47068;55.780;37.520;2023-06-14T11:49:04;100068.88;;;24.40;25.78
61205;BME280;47068;55.780;37.520;2023-06-14T11:51:33;100055.91;;;24.30;26.18
61205;BME280;47068;55.780;37.520;2023-06-14T11:53:59;100069.25;;;24.49;25.86
61205;BME280;47068;55.780;37.520;2023-06-14T11:56:25;100049.84;;;24.40;25.78
61205;BME280;47068;55.780;37.520;2023-06-14T11:58:52;100079.03;;;24.61;26.22
61205;BME280;47068;55.780;37.520;2023-06-14T12:01:19;100035.81;;;24.48;25.85
61205;BME280;47068;55.780;37.520;2023-06-14T12:03:48;100070.28;;;24.59;25.76
61205;BME280;47068;55.780;37.520;2023-06-14T12:06:17;100065.75;;;24.65;25.98
61205;BME280;47068;55.780;37.520;2023-06-14T12:08:50;100053.13;;;24.76;26.17
61205;BME280;47068;55.780;37.520;2023-06-14T12:11:17;100053.78;;;24.83;25.34
61205;BME280;47068;55.780;37.520;2023-06-14T12:13:43;100043.16;;;24.64;25.33
61205;BME280;47068;55.780;37.520;2023-06-14T12:16:10;100052.53;;;24.57;25.48
61205;BME280;47068;55.780;37.520;2023-06-14T12:18:38;100048.16;;;24.56;25.19
61205;BME280;47068;55.780;37.520;2023-06-14T12:21:08;100052.06;;;24.60;25.35
61205;BME280;47068;55.780;37.520;2023-06-14T12:23:46;100021.88;;;24.45;24.53
61205;BME280;47068;55.780;37.520;2023-06-14T12:26:13;100045.06;;;24.47;25.01
61205;BME280;47068;55.780;37.520;2023-06-14T12:28:40;100053.13;;;24.59;24.90
61205;BME280;47068;55.780;37.520;2023-06-14T12:31:07;100047.75;;;24.64;25.04
61205;BME280;47068;55.780;37.520;2023-06-14T12:33:33;100037.28;;;24.56;25.02
61205;BME280;47068;55.780;37.520;2023-06-14T12:35:58;100032.00;;;24.49;25.40
61205;BME280;47068;55.780;37.520;2023-06-14T12:38:24;100016.09;;;24.41;25.79
61205;BME280;47068;55.780;37.520;2023-06-14T12:40:49;100028.22;;;24.50;25.10
61205;BME280;47068;55.780;37.520;2023-06-14T12:43:15;100039.44;;;24.54;25.57
61205;BME280;47068;55.780;37.520;2023-06-14T12:45:40;100036.97;;;24.52;25.57
61205;BME280;47068;55.780;37.520;2023-06-14T12:48:06;100033.50;;;24.40;25.83
61205;BME280;47068;55.780;37.520;2023-06-14T12:50:34;100020.63;;;24.36;25.65
61205;BME280;47068;55.780;37.520;2023-06-14T12:52:59;100023.03;;;24.32;25.63
61205;BME280;47068;55.780;37.520;2023-06-14T12:55:25;100009.00;;;24.23;26.45